Time;durP1;ratioP1;P1;durP2;ratioP2;P2;SDS_P1;SDS_P2;PMS_P1;PMS_P2;Temp;Humidity;BMP_temperature;BMP_pressure;BME280_temperature;BME280_humidity;BME280_pressure;Samples;Min_cycle;Max_cycle;Signal;HPM_P1;HPM_P2
2023/09/20 00:02:09;;;;;;;0.47;0.47;;;18.70;99.90;;;;;;4986948;28;20110;-80
2023/09/20 00:04:35;;;;;;;0.40;0.40;;;18.70;99.90;;;;;;4987232;28;20070;-79
2023/09/20 00:07:02;;;;;;;0.50;0.50;;;18.60;99.90;;;;;;4988324;28;20073;-79
2023/09/20 00:09:30;;;;;;;0.63;0.63;;;18.70;99.90;;;;;;4984542;28;20034;-79
2023/09/20 00:11:56;;;;;;;0.40;0.40;;;18.60;99.90;;;;;;4989358;28;20025;-79
2023/09/20 00:14:22;;;;;;;0.40;0.40;;;18.70;99.90;;;;;;4986354;28;21334;-79
2023/09/20 00:16:52;;;;;;;0.50;0.50;;;18.60;99.90;;;;;;4987131;28;20305;-79
2023/09/20 00:19:18;;;;;;;0.43;0.43;;;18.60;99.90;;;;;;4986342;28;20085;-79
2023/09/20 00:21:45;;;;;;;0.38;0.38;;;18.60;99.90;;;;;;4977444;28;20052;-79
2023/09/20 00:24:11;;;;;;;0.47;0.47;;;18.60;99.90;;;;;;4964450;28;20019;-79
2023/09/20 00:26:39;;;;;;;0.40;0.40;;;18.60;99.90;;;;;;4986435;28;20022;-79
2023/09/20 00:29:08;;;;;;;0.30;0.30;;;18.60;99.90;;;;;;4987181;28;20046;-79
2023/09/20 00:31:35;;;;;;;0.50;0.50;;;18.50;99.90;;;;;;4968290;28;20219;-79
2023/09/20 00:34:03;;;;;;;0.30;0.30;;;18.50;99.90;;;;;;4982075;28;20018;-79
2023/09/20 00:36:31;;;;;;;0.40;0.40;;;18.50;99.90;;;;;;4964814;28;20110;-79
2023/09/20 00:38:57;;;;;;;0.40;0.40;;;18.40;99.90;;;;;;4985348;28;20155;-79
2023/09/20 00:41:26;;;;;;;0.40;0.40;;;18.40;99.90;;;;;;4986166;28;20533;-79
2023/09/20 00:43:53;;;;;;;0.40;0.40;;;18.50;99.90;;;;;;4985402;28;20033;-79
2023/09/20 00:46:22;;;;;;;0.40;0.40;;;18.50;99.90;;;;;;4985610;28;20026;-79
2023/09/20 00:48:50;;;;;;;0.60;0.60;;;18.50;99.90;;;;;;4983078;28;20220;-79
2023/09/20 00:51:17;;;;;;;0.40;0.40;;;18.40;99.90;;;;;;4974483;28;21358;-79
2023/09/20 00:53:43;;;;;;;0.50;0.50;;;18.40;99.90;;;;;;4985944;28;20237;-79
2023/09/20 00:56:11;;;;;;;0.40;0.40;;;18.40;99.90;;;;;;4968148;28;20498;-80
2023/09/20 00:58:37;;;;;;;0.40;0.40;;;18.30;99.90;;;;;;4966502;28;20026;-79
2023/09/20 01:01:04;;;;;;;0.50;0.50;;;18.30;99.90;;;;;;4987816;28;20049;-80
2023/09/20 01:03:35;;;;;;;0.50;0.50;;;18.30;99.90;;;;;;4988352;28;20060;-80
2023/09/20 01:06:04;;;;;;;0.50;0.50;;;18.20;99.90;;;;;;4984581;28;20053;-80
2023/09/20 01:08:32;;;;;;;0.40;0.40;;;18.20;99.90;;;;;;4969509;28;20037;-79
2023/09/20 01:10:59;;;;;;;1.23;1.13;;;18.10;99.90;;;;;;4985438;28;20520;-79
2023/09/20 01:13:25;;;;;;;0.40;0.40;;;18.10;99.90;;;;;;4985737;28;20530;-79
2023/09/20 01:15:52;;;;;;;2.38;2.13;;;18.10;99.90;;;;;;4987749;28;20017;-79
2023/09/20 01:18:20;;;;;;;0.45;0.45;;;18.10;99.90;;;;;;4992416;28;20018;-79
2023/09/20 01:20:45;;;;;;;0.40;0.40;;;18.00;99.90;;;;;;4996786;28;20517;-79
2023/09/20 01:23:11;;;;;;;0.40;0.40;;;18.10;99.90;;;;;;4982247;28;20038;-78
2023/09/20 01:25:43;;;;;;;0.68;0.68;;;18.00;99.90;;;;;;4973382;28;20085;-78
2023/09/20 01:28:10;;;;;;;0.60;0.60;;;17.90;99.90;;;;;;4971558;28;20037;-78
2023/09/20 01:30:37;;;;;;;0.50;0.50;;;17.90;99.90;;;;;;4975719;28;20849;-78
2023/09/20 01:33:08;;;;;;;0.40;0.40;;;17.90;99.90;;;;;;4988625;28;20105;-77
2023/09/20 01:35:34;;;;;;;0.50;0.50;;;17.80;99.90;;;;;;4982359;28;20057;-78
2023/09/20 01:38:06;;;;;;;0.77;0.70;;;17.80;99.90;;;;;;4986682;28;20129;-78
2023/09/20 01:40:33;;;;;;;0.88;0.88;;;17.70;99.90;;;;;;4978938;28;20026;-78
2023/09/20 01:43:11;;;;;;;0.50;0.50;;;17.80;99.90;;;;;;5002107;28;20026;-79
2023/09/20 01:45:38;;;;;;;0.60;0.60;;;17.80;99.90;;;;;;4998227;28;20062;-79
2023/09/20 01:48:11;;;;;;;0.50;0.50;;;17.80;99.90;;;;;;5000272;28;20124;-78
2023/09/20 01:50:37;;;;;;;0.50;0.50;;;17.70;99.90;;;;;;5004756;28;20030;-78
2023/09/20 01:53:08;;;;;;;0.98;0.98;;;17.70;99.90;;;;;;4974228;28;20037;-79
2023/09/20 01:55:36;;;;;;;0.50;0.50;;;17.70;99.90;;;;;;4998300;28;20011;-78
2023/09/20 01:58:06;;;;;;;0.47;0.47;;;17.70;99.90;;;;;;5002912;28;20594;-78
2023/09/20 02:00:33;;;;;;;0.50;0.50;;;17.70;99.90;;;;;;4982554;28;20022;-78
2023/09/20 02:03:00;;;;;;;0.40;0.40;;;17.70;99.90;;;;;;5001053;28;20021;-79
2023/09/20 02:05:27;;;;;;;0.50;0.50;;;17.70;99.90;;;;;;4999149;28;20521;-79
2023/09/20 02:07:59;;;;;;;0.47;0.47;;;17.70;99.90;;;;;;4983195;28;20053;-78
2023/09/20 02:10:25;;;;;;;0.50;0.50;;;17.70;99.90;;;;;;4998380;28;20143;-78
2023/09/20 02:12:53;;;;;;;1.00;0.90;;;17.70;99.90;;;;;;4998444;28;20410;-79
2023/09/20 02:15:20;;;;;;;0.40;0.40;;;17.70;99.90;;;;;;4985170;28;20026;-78
2023/09/20 02:17:46;;;;;;;0.80;0.80;;;17.70;99.90;;;;;;4999857;28;20014;-79
2023/09/20 02:20:19;;;;;;;0.47;0.47;;;17.80;99.90;;;;;;4999151;28;20229;-78
2023/09/20 02:22:45;;;;;;;;;;;17.70;99.90;;;;;;4981954;28;20136;-78
2023/09/20 02:25:12;;;;;;;0.50;0.50;;;17.70;99.90;;;;;;4982225;28;20421;-78
2023/09/20 02:27:42;;;;;;;0.40;0.40;;;17.70;99.90;;;;;;4999236;28;20025;-78
2023/09/20 02:30:15;;;;;;;0.40;0.40;;;17.70;99.90;;;;;;4998563;28;20025;-79
2023/09/20 02:32:41;;;;;;;0.50;0.50;;;17.70;99.90;;;;;;4999683;28;20029;-78
2023/09/20 02:35:07;;;;;;;0.63;0.63;;;17.70;99.90;;;;;;4998266;28;20025;-78
2023/09/20 02:37:37;;;;;;;0.50;0.50;;;17.70;99.90;;;;;;4982560;28;20076;-79
2023/09/20 02:40:17;;;;;;;0.40;0.40;;;17.70;99.90;;;;;;4982215;28;20461;-78
2023/09/20 02:42:44;;;;;;;0.43;0.43;;;17.70;99.90;;;;;;4981102;28;20030;-78
2023/09/20 02:45:15;;;;;;;0.50;0.50;;;17.70;99.90;;;;;;4979826;28;20061;-78
2023/09/20 02:47:41;;;;;;;0.50;0.50;;;17.70;99.90;;;;;;4997535;28;20029;-79
2023/09/20 02:50:10;;;;;;;0.40;0.40;;;17.70;99.90;;;;;;4997867;28;20038;-80
2023/09/20 02:52:36;;;;;;;0.50;0.50;;;17.70;99.90;;;;;;5000260;28;20528;-80
2023/09/20 02:55:06;;;;;;;0.50;0.50;;;17.70;99.90;;;;;;4981507;28;20018;-78
2023/09/20 02:57:32;;;;;;;0.50;0.50;;;17.70;99.90;;;;;;4979449;28;20057;-78
2023/09/20 02:59:59;;;;;;;0.40;0.40;;;17.70;99.90;;;;;;4999841;28;20061;-78
2023/09/20 03:02:24;;;;;;;0.50;0.50;;;17.70;99.90;;;;;;4983676;28;20018;-78
2023/09/20 03:04:53;;;;;;;0.40;0.40;;;17.70;99.90;;;;;;4998347;28;20602;-79
2023/09/20 03:07:23;;;;;;;0.30;0.30;;;17.60;99.90;;;;;;4983164;28;20025;-78
2023/09/20 03:09:49;;;;;;;0.60;0.60;;;17.70;99.90;;;;;;5001698;28;20564;-79
2023/09/20 03:12:15;;;;;;;0.50;0.50;;;17.70;99.90;;;;;;4998803;28;20034;-79
2023/09/20 03:14:45;;;;;;;0.50;0.50;;;17.70;99.90;;;;;;5002868;28;20026;-79
2023/09/20 03:17:12;;;;;;;0.50;0.50;;;17.70;99.90;;;;;;4983593;28;20053;-79
2023/09/20 03:19:38;;;;;;;0.50;0.50;;;17.80;99.90;;;;;;4993722;28;20109;-79
2023/09/20 03:22:06;;;;;;;0.52;0.52;;;17.70;99.90;;;;;;4984721;28;20057;-78
2023/09/20 03:24:32;;;;;;;0.60;0.60;;;17.80;99.90;;;;;;4996089;28;20028;-79
2023/09/20 03:27:01;;;;;;;0.60;0.60;;;17.80;99.90;;;;;;4982905;28;20021;-80
2023/09/20 03:29:29;;;;;;;0.43;0.43;;;17.80;99.90;;;;;;4998656;28;20365;-79
2023/09/20 03:31:55;;;;;;;0.60;0.60;;;17.80;99.90;;;;;;4983817;28;20072;-80
2023/09/20 03:34:21;;;;;;;0.60;0.60;;;17.80;99.90;;;;;;4984155;28;20426;-79
2023/09/20 03:36:47;;;;;;;0.57;0.57;;;17.80;99.90;;;;;;5000741;28;20088;-79
2023/09/20 03:39:13;;;;;;;0.40;0.40;;;17.80;99.90;;;;;;5002350;28;20030;-79
2023/09/20 03:41:39;;;;;;;1.42;1.33;;;17.80;99.90;;;;;;4979851;28;20033;-79
2023/09/20 03:44:08;;;;;;;0.60;0.60;;;17.80;99.90;;;;;;5000961;28;20112;-79
2023/09/20 03:46:34;;;;;;;0.60;0.60;;;17.70;99.90;;;;;;4982862;28;20033;-79
2023/09/20 03:49:01;;;;;;;0.50;0.50;;;17.70;99.90;;;;;;4996115;28;20101;-78
2023/09/20 03:51:26;;;;;;;0.60;0.60;;;17.70;99.90;;;;;;4997850;28;20030;-79
2023/09/20 03:53:52;;;;;;;0.73;0.73;;;17.70;99.90;;;;;;4977340;28;20025;-78
2023/09/20 03:56:18;;;;;;;1.25;1.15;;;17.60;99.90;;;;;;4999934;28;20024;-78
2023/09/20 03:58:43;;;;;;;0.50;0.50;;;17.60;99.90;;;;;;4997824;28;20459;-78
2023/09/20 04:01:09;;;;;;;0.60;0.60;;;17.70;99.90;;;;;;4999166;28;20100;-79
2023/09/20 04:03:37;;;;;;;0.70;0.70;;;17.60;99.90;;;;;;4997105;28;20054;-79
2023/09/20 04:06:03;;;;;;;0.68;0.68;;;17.60;99.90;;;;;;4983545;28;20026;-79
2023/09/20 04:08:28;;;;;;;0.60;0.60;;;17.60;99.90;;;;;;4977647;28;20026;-78
2023/09/20 04:10:56;;;;;;;0.60;0.60;;;17.60;99.90;;;;;;4998859;28;20652;-78
2023/09/20 04:13:22;;;;;;;0.70;0.70;;;17.70;99.90;;;;;;4982093;28;20037;-77
2023/09/20 04:15:48;;;;;;;0.50;0.50;;;17.70;99.90;;;;;;4999457;28;20025;-78
2023/09/20 04:18:15;;;;;;;0.60;0.60;;;17.60;99.90;;;;;;4983122;28;20229;-78
2023/09/20 04:20:41;;;;;;;0.50;0.50;;;17.60;99.90;;;;;;4982410;28;20030;-78
2023/09/20 04:23:07;;;;;;;1.55;1.45;;;17.70;99.90;;;;;;4999036;28;20680;-78
2023/09/20 04:25:33;;;;;;;0.70;0.70;;;17.70;99.90;;;;;;4977172;28;20036;-79
2023/09/20 04:28:01;;;;;;;0.82;0.82;;;17.60;99.90;;;;;;4992372;28;20093;-79
2023/09/20 04:30:28;;;;;;;0.40;0.40;;;17.60;99.90;;;;;;4996190;28;20073;-78
2023/09/20 04:32:57;;;;;;;0.57;0.57;;;17.60;99.90;;;;;;4996204;28;20121;-78
2023/09/20 04:35:22;;;;;;;0.40;0.40;;;17.70;99.90;;;;;;5000804;28;20041;-78
2023/09/20 04:37:48;;;;;;;0.40;0.40;;;17.60;99.90;;;;;;4986366;28;20037;-79
2023/09/20 04:40:14;;;;;;;0.60;0.60;;;17.50;99.90;;;;;;4981340;28;20659;-78
2023/09/20 04:42:39;;;;;;;0.40;0.40;;;17.50;99.90;;;;;;4998992;28;20502;-79
2023/09/20 04:45:12;;;;;;;0.40;0.40;;;17.60;99.90;;;;;;4998433;28;20517;-78
2023/09/20 04:47:38;;;;;;;0.60;0.60;;;17.60;99.90;;;;;;4981209;28;20041;-79
2023/09/20 04:50:04;;;;;;;1.05;1.05;;;17.70;99.90;;;;;;4982918;28;20038;-78
2023/09/20 04:52:30;;;;;;;0.57;0.57;;;17.70;99.90;;;;;;4987347;28;20034;-79
2023/09/20 04:54:56;;;;;;;0.40;0.40;;;17.70;99.90;;;;;;4998555;28;20028;-78
2023/09/20 04:57:21;;;;;;;0.65;0.65;;;17.70;99.90;;;;;;4986831;28;20014;-79
2023/09/20 04:59:47;;;;;;;0.57;0.57;;;17.70;99.90;;;;;;5002408;28;20037;-78
2023/09/20 05:02:13;;;;;;;0.60;0.60;;;17.70;99.90;;;;;;5001774;28;20021;-79
2023/09/20 05:04:40;;;;;;;0.60;0.60;;;17.80;99.90;;;;;;5003891;28;20026;-79
2023/09/20 05:07:05;;;;;;;0.50;0.50;;;17.70;99.90;;;;;;5004234;28;20022;-78
2023/09/20 05:09:34;;;;;;;1.15;1.15;;;17.60;99.90;;;;;;4985384;28;20034;-79
2023/09/20 05:12:00;;;;;;;0.50;0.50;;;17.60;99.90;;;;;;4979571;28;20109;-79
2023/09/20 05:14:27;;;;;;;0.70;0.70;;;17.60;99.90;;;;;;5001180;28;20331;-80
2023/09/20 05:16:52;;;;;;;0.40;0.40;;;17.60;99.90;;;;;;5000021;28;20033;-79
2023/09/20 05:19:18;;;;;;;0.60;0.60;;;17.60;99.90;;;;;;4998025;28;20025;-79
2023/09/20 05:21:45;;;;;;;0.60;0.60;;;17.50;99.90;;;;;;5003660;28;20524;-79
2023/09/20 05:24:10;;;;;;;0.60;0.60;;;17.50;99.90;;;;;;5001338;28;20132;-79
2023/09/20 05:26:36;;;;;;;0.40;0.40;;;17.50;99.90;;;;;;4985586;28;20116;-79
2023/09/20 05:29:03;;;;;;;0.70;0.70;;;17.50;99.90;;;;;;5003561;28;20118;-79
2023/09/20 05:31:29;;;;;;;0.50;0.50;;;17.50;99.90;;;;;;4999385;28;20681;-80
2023/09/20 05:33:55;;;;;;;0.60;0.60;;;17.40;99.90;;;;;;5002105;28;20195;-78
2023/09/20 05:36:23;;;;;;;0.80;0.80;;;17.50;99.90;;;;;;5004078;28;20021;-80
2023/09/20 05:38:49;;;;;;;0.80;0.80;;;17.50;99.90;;;;;;5003492;28;20036;-79
2023/09/20 05:41:17;;;;;;;0.70;0.70;;;17.50;99.90;;;;;;4984092;28;20046;-79
2023/09/20 05:43:42;;;;;;;0.60;0.60;;;17.50;99.90;;;;;;5002841;28;20052;-78
2023/09/20 05:46:08;;;;;;;0.70;0.70;;;17.50;99.90;;;;;;5001749;28;20482;-78
2023/09/20 05:48:35;;;;;;;0.70;0.70;;;17.50;99.90;;;;;;4985384;28;20753;-78
2023/09/20 05:51:01;;;;;;;0.60;0.60;;;17.60;99.90;;;;;;5000817;28;20018;-78
2023/09/20 05:53:28;;;;;;;0.75;0.75;;;17.60;99.90;;;;;;5003489;28;20744;-78
2023/09/20 05:55:54;;;;;;;0.70;0.70;;;17.60;99.90;;;;;;4999784;28;20068;-79
2023/09/20 05:58:19;;;;;;;0.70;0.70;;;17.60;99.90;;;;;;5001380;28;20427;-78
2023/09/20 06:00:45;;;;;;;0.70;0.70;;;17.70;99.90;;;;;;4982476;28;20084;-78
2023/09/20 06:03:13;;;;;;;0.90;0.90;;;17.60;99.90;;;;;;4982641;28;20025;-78
2023/09/20 06:05:38;;;;;;;0.70;0.70;;;17.60;99.90;;;;;;4999872;28;20038;-78
2023/09/20 06:08:07;;;;;;;0.63;0.63;;;17.60;99.90;;;;;;5002052;28;20141;-78
2023/09/20 06:10:33;;;;;;;0.50;0.50;;;17.70;99.90;;;;;;4982995;28;20697;-78
2023/09/20 06:12:59;;;;;;;0.50;0.50;;;17.70;99.90;;;;;;5004540;28;20105;-79
2023/09/20 06:15:24;;;;;;;0.70;0.70;;;17.70;99.90;;;;;;5002760;28;20085;-79
2023/09/20 06:17:51;;;;;;;0.80;0.80;;;17.70;99.90;;;;;;4998232;28;20514;-80
2023/09/20 06:20:21;;;;;;;0.75;0.75;;;17.70;99.90;;;;;;4986304;28;20466;-79
2023/09/20 06:22:50;;;;;;;0.95;0.95;;;17.80;99.90;;;;;;5004188;28;20537;-78
2023/09/20 06:25:19;;;;;;;0.60;0.60;;;17.80;99.90;;;;;;5002206;28;20022;-79
2023/09/20 06:27:45;;;;;;;1.17;1.17;;;17.80;99.90;;;;;;5003166;28;20036;-79
2023/09/20 06:30:13;;;;;;;0.80;0.80;;;17.80;99.90;;;;;;4998991;28;20031;-80
2023/09/20 06:32:44;;;;;;;0.70;0.70;;;17.80;99.90;;;;;;5000418;28;20030;-80
2023/09/20 06:35:11;;;;;;;0.82;0.82;;;17.90;99.90;;;;;;4984642;28;20045;-81
2023/09/20 06:37:39;;;;;;;0.70;0.70;;;17.90;99.90;;;;;;4983060;28;20113;-80
2023/09/20 06:43:07;;;;;;;0.70;0.70;;;18.00;99.90;;;;;;4963119;28;20034;-80
2023/09/20 06:45:34;;;;;;;1.00;1.00;;;18.10;99.90;;;;;;4984035;28;20406;-80
2023/09/20 06:48:00;;;;;;;1.10;1.10;;;18.10;99.90;;;;;;4980398;28;20464;-80
2023/09/20 06:50:26;;;;;;;1.10;1.10;;;18.10;99.90;;;;;;5000748;28;20457;-79
2023/09/20 06:52:54;;;;;;;1.02;1.02;;;18.20;99.90;;;;;;4984300;28;20029;-79
2023/09/20 06:55:25;;;;;;;1.00;1.00;;;18.20;99.90;;;;;;4986212;28;20018;-79
2023/09/20 06:57:51;;;;;;;1.00;1.00;;;18.30;99.90;;;;;;4999098;28;20041;-80
2023/09/20 07:00:26;;;;;;;1.02;1.02;;;18.40;99.90;;;;;;4980331;28;20018;-79
2023/09/20 07:02:55;;;;;;;0.88;0.88;;;18.30;99.90;;;;;;4984070;28;20524;-79
2023/09/20 07:05:24;;;;;;;1.02;1.02;;;18.40;99.90;;;;;;4999426;28;20061;-80
2023/09/20 07:07:50;;;;;;;0.90;0.90;;;18.30;99.90;;;;;;4984876;28;20026;-79
2023/09/20 07:10:16;;;;;;;0.95;0.95;;;18.30;99.90;;;;;;4999635;28;20033;-80
2023/09/20 07:12:42;;;;;;;0.80;0.80;;;18.40;99.90;;;;;;5003515;28;20111;-80
2023/09/20 07:15:09;;;;;;;0.95;0.95;;;18.40;99.90;;;;;;5002370;28;20398;-79
2023/09/20 07:17:35;;;;;;;0.80;0.80;;;18.50;99.90;;;;;;4983814;28;20030;-80
2023/09/20 07:20:08;;;;;;;0.80;0.80;;;18.50;99.90;;;;;;4985277;28;20332;-79
2023/09/20 07:22:34;;;;;;;0.80;0.80;;;18.50;99.90;;;;;;4981877;28;20078;-80
2023/09/20 07:25:04;;;;;;;0.80;0.80;;;18.60;99.90;;;;;;5001912;28;20060;-80
2023/09/20 07:27:32;;;;;;;0.82;0.82;;;18.70;99.90;;;;;;5000592;28;20037;-79
2023/09/20 07:30:03;;;;;;;0.90;0.90;;;18.70;99.90;;;;;;4997817;28;20025;-80
2023/09/20 07:32:29;;;;;;;0.80;0.80;;;18.60;99.90;;;;;;4983118;28;20381;-80
2023/09/20 07:34:59;;;;;;;1.20;1.20;;;18.70;99.90;;;;;;5000290;28;20026;-79
2023/09/20 07:37:25;;;;;;;0.80;0.80;;;18.70;99.90;;;;;;5001680;28;20040;-80
2023/09/20 07:39:51;;;;;;;0.98;0.98;;;18.60;99.90;;;;;;5000061;28;20420;-79
2023/09/20 07:42:17;;;;;;;0.73;0.73;;;18.70;99.90;;;;;;4982723;28;20022;-79
2023/09/20 07:44:43;;;;;;;0.82;0.82;;;18.70;99.90;;;;;;5001271;28;20580;-79
2023/09/20 07:47:11;;;;;;;0.90;0.90;;;18.80;99.90;;;;;;4999609;28;20022;-80
2023/09/20 07:49:36;;;;;;;0.80;0.80;;;18.80;99.90;;;;;;4998484;28;20124;-80
2023/09/20 07:52:04;;;;;;;1.40;1.40;;;18.90;99.90;;;;;;5002202;28;20608;-80
2023/09/20 07:54:29;;;;;;;0.85;0.85;;;18.90;99.90;;;;;;4982045;28;20056;-79
2023/09/20 07:56:55;;;;;;;0.70;0.70;;;18.90;99.90;;;;;;4998310;28;20731;-79
2023/09/20 07:59:26;;;;;;;0.95;0.95;;;19.00;99.90;;;;;;5001275;28;20113;-80
2023/09/20 08:01:53;;;;;;;0.68;0.68;;;19.20;99.90;;;;;;5000622;28;20452;-78
2023/09/20 08:04:19;;;;;;;0.70;0.70;;;19.20;99.90;;;;;;5000004;28;20036;-81
2023/09/20 08:06:45;;;;;;;0.80;0.80;;;19.30;99.90;;;;;;4981822;28;20571;-79
2023/09/20 08:09:10;;;;;;;0.65;0.65;;;19.20;99.90;;;;;;4981781;28;20407;-80
2023/09/20 08:11:37;;;;;;;0.80;0.80;;;19.30;99.90;;;;;;4984163;28;20077;-78
2023/09/20 08:14:04;;;;;;;0.70;0.70;;;19.30;99.90;;;;;;4979812;28;20394;-80
2023/09/20 08:16:33;;;;;;;1.05;1.05;;;19.30;99.90;;;;;;4984575;28;20052;-81
2023/09/20 08:21:43;;;;;;;0.80;0.80;;;19.40;99.90;;;;;;5002185;28;20386;-80
2023/09/20 09:00:21;;;;;;;1.00;1.00;;;19.50;99.90;;;;;;4999228;28;20107;-81
2023/09/20 09:02:53;;;;;;;0.85;0.85;;;19.50;99.90;;;;;;4998238;28;20053;-81
2023/09/20 09:05:21;;;;;;;0.80;0.80;;;19.80;99.90;;;;;;5000337;28;20037;-81
2023/09/20 09:07:48;;;;;;;0.80;0.80;;;19.80;99.90;;;;;;4982390;28;20425;-81
2023/09/20 09:10:14;;;;;;;1.10;1.10;;;20.00;99.90;;;;;;5002247;28;20026;-81
2023/09/20 09:12:41;;;;;;;0.80;0.80;;;20.30;99.90;;;;;;4997958;28;20052;-81
2023/09/20 09:15:10;;;;;;;1.00;1.00;;;20.50;99.90;;;;;;5000297;28;20022;-80
2023/09/20 09:17:46;;;;;;;0.80;0.80;;;20.80;99.90;;;;;;4997238;28;20664;-80
2023/09/20 09:20:14;;;;;;;0.82;0.82;;;21.00;99.90;;;;;;4990166;28;20342;-80
2023/09/20 09:22:41;;;;;;;0.80;0.80;;;21.20;99.90;;;;;;4980974;28;20080;-82
2023/09/20 09:25:24;;;;;;;0.73;0.73;;;21.30;99.90;;;;;;4981817;28;20025;-81
2023/09/20 09:27:49;;;;;;;1.00;1.00;;;21.40;99.90;;;;;;4980167;28;20037;-80
2023/09/20 09:30:17;;;;;;;0.80;0.80;;;21.30;99.90;;;;;;4997183;28;20042;-81
2023/09/20 09:32:45;;;;;;;0.93;0.93;;;21.20;99.90;;;;;;4983367;28;20026;-81
2023/09/20 09:35:12;;;;;;;0.80;0.80;;;20.90;99.90;;;;;;5000532;28;20506;-81
2023/09/20 09:37:41;;;;;;;0.70;0.70;;;21.00;99.90;;;;;;4983174;28;20014;-80
2023/09/20 09:40:09;;;;;;;1.25;1.25;;;20.90;99.90;;;;;;5004660;28;20117;-80
2023/09/20 09:42:36;;;;;;;0.88;0.88;;;20.90;99.90;;;;;;4986049;28;20185;-80
2023/09/20 09:45:02;;;;;;;1.00;1.00;;;20.90;99.90;;;;;;4986050;28;20381;-80
2023/09/20 09:47:30;;;;;;;0.85;0.85;;;20.90;99.90;;;;;;5002159;28;20022;-81
2023/09/20 09:49:58;;;;;;;0.80;0.80;;;21.00;99.90;;;;;;4982581;28;20437;-80
2023/09/20 09:52:23;;;;;;;0.90;0.90;;;21.30;99.90;;;;;;4986577;28;20559;-82
2023/09/20 09:54:51;;;;;;;0.98;0.98;;;21.40;99.90;;;;;;4983077;28;20092;-81
2023/09/20 09:57:19;;;;;;;0.73;0.73;;;21.50;99.90;;;;;;4986112;28;20093;-81
2023/09/20 09:59:49;;;;;;;1.20;1.20;;;21.70;99.90;;;;;;5002943;28;20458;-81
2023/09/20 10:02:19;;;;;;;1.10;1.10;;;21.80;99.90;;;;;;5002876;28;20080;-81
2023/09/20 10:05:02;;;;;;;1.05;1.05;;;21.90;99.90;;;;;;4986066;28;20037;-78
2023/09/20 10:07:40;;;;;;;1.00;1.00;;;21.90;99.90;;;;;;4985020;28;20409;-78
2023/09/20 10:10:13;;;;;;;0.70;0.70;;;21.80;99.90;;;;;;4999805;28;20056;-78
2023/09/20 10:12:40;;;;;;;0.88;0.88;;;21.70;99.90;;;;;;4996385;28;20030;-82
2023/09/20 10:15:08;;;;;;;0.80;0.80;;;21.70;99.90;;;;;;4987071;28;20026;-80
2023/09/20 10:17:56;;;;;;;0.80;0.80;;;21.70;99.90;;;;;;5003843;28;20749;-79
2023/09/20 10:20:22;;;;;;;0.85;0.85;;;21.80;99.90;;;;;;4988414;28;20042;-79
2023/09/20 10:22:49;;;;;;;0.60;0.60;;;22.00;99.90;;;;;;5005281;28;20151;-78
2023/09/20 10:25:32;;;;;;;0.60;0.60;;;22.00;99.90;;;;;;5005874;28;20026;-78
2023/09/20 10:28:16;;;;;;;3.45;0.75;;;22.20;99.90;;;;;;5003283;28;20404;-81
2023/09/20 10:31:01;;;;;;;0.60;0.60;;;22.30;99.90;;;;;;5002922;28;20029;-79
2023/09/20 10:33:46;;;;;;;1.00;1.00;;;22.50;99.90;;;;;;5005355;28;20120;-79
2023/09/20 10:36:24;;;;;;;1.75;0.88;;;22.60;99.90;;;;;;4979741;28;20339;-80
2023/09/20 10:39:16;;;;;;;0.70;0.70;;;22.60;99.90;;;;;;5004106;28;20022;-80
2023/09/20 10:41:43;;;;;;;0.75;0.75;;;22.60;99.90;;;;;;4988659;28;20036;-78
2023/09/20 10:44:28;;;;;;;0.90;0.90;;;22.60;99.90;;;;;;4987256;28;20030;-82
2023/09/20 10:46:55;;;;;;;0.70;0.70;;;22.70;99.90;;;;;;5002110;28;20133;-79
2023/09/20 10:49:49;;;;;;;0.57;0.57;;;22.70;99.90;;;;;;5005478;28;20458;-80
2023/09/20 10:52:53;;;;;;;0.70;0.70;;;22.80;99.90;;;;;;5004383;28;20029;-79
2023/09/20 10:55:22;;;;;;;1.00;1.00;;;22.50;99.90;;;;;;4984147;28;20155;-81
2023/09/20 10:57:51;;;;;;;0.95;0.95;;;22.60;99.90;;;;;;5002211;28;20018;-81
2023/09/20 11:00:30;;;;;;;1.20;1.20;;;22.60;99.90;;;;;;5003118;28;20500;-81
2023/09/20 11:02:56;;;;;;;0.70;0.70;;;22.80;99.90;;;;;;5003923;28;20485;-79
2023/09/20 11:05:23;;;;;;;0.90;0.90;;;22.80;99.90;;;;;;5004858;28;20030;-79
2023/09/20 11:07:52;;;;;;;0.50;0.50;;;22.70;99.90;;;;;;5001927;28;20057;-78
2023/09/20 11:10:19;;;;;;;0.77;0.77;;;22.80;99.90;;;;;;5004920;28;20464;-79
2023/09/20 11:12:45;;;;;;;1.17;1.17;;;22.70;99.90;;;;;;4987359;28;20053;-81
2023/09/20 11:15:10;;;;;;;0.85;0.85;;;22.70;99.90;;;;;;4999592;28;20058;-80
2023/09/20 11:17:36;;;;;;;0.90;0.90;;;22.70;99.90;;;;;;4985359;28;20022;-78
2023/09/20 11:20:06;;;;;;;1.00;1.00;;;22.70;99.90;;;;;;4987518;28;20026;-80
2023/09/20 11:22:32;;;;;;;0.63;0.63;;;22.80;99.90;;;;;;4981588;28;20034;-79
2023/09/20 11:24:57;;;;;;;0.60;0.60;;;22.80;99.90;;;;;;4956787;28;20379;-78
2023/09/20 11:27:24;;;;;;;0.80;0.80;;;22.70;99.90;;;;;;4978406;28;20026;-79
2023/09/20 11:29:50;;;;;;;1.30;1.30;;;22.90;99.90;;;;;;4976561;28;20511;-81
2023/09/20 11:32:21;;;;;;;1.02;1.02;;;22.90;99.90;;;;;;4962264;28;20027;-79
2023/09/20 11:34:51;;;;;;;0.85;0.85;;;23.00;99.90;;;;;;4967676;28;20038;-79
2023/09/20 11:37:19;;;;;;;0.80;0.80;;;23.30;99.90;;;;;;4963862;28;20053;-79
2023/09/20 11:39:49;;;;;;;0.82;0.82;;;23.50;99.90;;;;;;4980075;28;20474;-79
2023/09/20 11:42:31;;;;;;;1.20;1.20;;;23.30;99.90;;;;;;4978839;28;20047;-80
2023/09/20 11:44:57;;;;;;;1.00;1.00;;;23.20;99.90;;;;;;4967790;28;20490;-79
2023/09/20 11:47:24;;;;;;;1.30;1.30;;;23.40;99.90;;;;;;4965174;28;20053;-79
2023/09/20 11:49:50;;;;;;;0.90;0.90;;;23.30;99.90;;;;;;4974475;28;20070;-79
2023/09/20 11:52:20;;;;;;;1.00;1.00;;;23.30;99.90;;;;;;4975867;28;20030;-80
2023/09/20 11:54:47;;;;;;;0.65;0.65;;;23.20;99.90;;;;;;4968073;28;20030;-79
2023/09/20 11:57:16;;;;;;;0.80;0.80;;;23.20;99.90;;;;;;4976393;28;20033;-79
2023/09/20 11:59:43;;;;;;;1.05;1.05;;;23.10;99.90;;;;;;4979552;28;20066;-83
2023/09/20 12:02:14;;;;;;;0.60;0.60;;;23.10;99.90;;;;;;4967237;28;20571;-79
2023/09/20 12:04:40;;;;;;;0.90;0.90;;;23.10;99.90;;;;;;4962950;28;20600;-80
2023/09/20 12:07:09;;;;;;;0.52;0.52;;;23.10;99.90;;;;;;4975289;28;20220;-78
2023/09/20 12:09:36;;;;;;;0.70;0.70;;;23.20;99.90;;;;;;4976743;28;20122;-81
2023/09/20 12:12:05;;;;;;;0.90;0.90;;;23.60;99.90;;;;;;4975585;28;20109;-80
2023/09/20 12:14:33;;;;;;;0.70;0.70;;;23.50;99.20;;;;;;4973198;28;20085;-80
2023/09/20 12:16:59;;;;;;;0.70;0.70;;;23.60;99.30;;;;;;4974906;28;20455;-78
2023/09/20 12:19:25;;;;;;;0.80;0.80;;;23.60;99.80;;;;;;4961312;28;20073;-79
2023/09/20 12:21:53;;;;;;;1.00;0.77;;;23.90;99.40;;;;;;4980005;28;20678;-78
2023/09/20 12:24:18;;;;;;;1.15;1.15;;;23.90;98.30;;;;;;4974722;28;20475;-79
2023/09/20 12:26:45;;;;;;;0.70;0.70;;;23.70;98.40;;;;;;4975377;28;20062;-78
2023/09/20 12:29:11;;;;;;;1.02;1.02;;;23.70;99.50;;;;;;4974593;28;20145;-79
2023/09/20 12:31:36;;;;;;;0.80;0.80;;;23.60;99.50;;;;;;4960389;28;20506;-78
2023/09/20 12:34:04;;;;;;;1.38;1.38;;;23.70;99.50;;;;;;4973381;28;20510;-80
2023/09/20 12:36:30;;;;;;;0.50;0.50;;;23.70;99.30;;;;;;4958050;28;20030;-80
2023/09/20 12:38:56;;;;;;;1.02;1.02;;;23.70;98.70;;;;;;4981138;28;20038;-79
2023/09/20 12:41:25;;;;;;;0.70;0.70;;;23.60;98.20;;;;;;4973851;28;20046;-78
2023/09/20 12:43:51;;;;;;;0.75;0.75;;;23.50;97.90;;;;;;4971285;28;20011;-79
2023/09/20 12:46:17;;;;;;;0.77;0.77;;;23.70;97.40;;;;;;4960244;28;20102;-78
2023/09/20 12:48:44;;;;;;;0.77;0.77;;;24.00;97.60;;;;;;4960995;28;20494;-78
2023/09/20 12:51:12;;;;;;;0.90;0.90;;;24.10;97.00;;;;;;4979183;28;20041;-79
2023/09/20 12:53:43;;;;;;;1.08;1.08;;;24.20;97.40;;;;;;4959803;28;20030;-80
2023/09/20 12:56:11;;;;;;;1.30;1.30;;;24.10;96.40;;;;;;4976881;28;20034;-80
2023/09/20 12:58:39;;;;;;;0.40;0.40;;;23.60;96.40;;;;;;4975254;28;20023;-84
2023/09/20 13:01:07;;;;;;;0.50;0.50;;;23.70;96.80;;;;;;4964432;28;20030;-85
2023/09/20 13:03:35;;;;;;;0.40;0.40;;;23.80;97.00;;;;;;4972743;28;20037;-86
2023/09/20 13:06:00;;;;;;;0.45;0.45;;;23.90;97.30;;;;;;4964333;28;20023;-86
2023/09/20 13:08:26;;;;;;;0.50;0.50;;;23.90;96.80;;;;;;4965958;28;20027;-86
2023/09/20 13:10:54;;;;;;;0.38;0.38;;;23.90;96.80;;;;;;4977792;28;20058;-86
2023/09/20 13:13:21;;;;;;;0.47;0.47;;;23.80;97.00;;;;;;4964763;28;20026;-87
2023/09/20 13:15:47;;;;;;;0.30;0.30;;;23.80;96.40;;;;;;4970739;28;20030;-87
2023/09/20 13:18:13;;;;;;;0.50;0.50;;;23.80;96.10;;;;;;4970013;28;20034;-88
2023/09/20 13:20:42;;;;;;;1.05;0.40;;;23.60;96.10;;;;;;4970454;28;20084;-88
2023/09/20 13:23:11;;;;;;;0.50;0.50;;;23.50;96.90;;;;;;4962298;28;20027;-88
2023/09/20 13:25:41;;;;;;;0.30;0.30;;;23.50;97.10;;;;;;4961830;28;20031;-89
2023/09/20 13:28:12;;;;;;;0.40;0.40;;;23.30;97.00;;;;;;4971553;28;20029;-89
2023/09/20 13:30:40;;;;;;;0.35;0.35;;;23.10;97.10;;;;;;4971354;28;20027;-89
2023/09/20 13:33:07;;;;;;;0.40;0.40;;;23.10;96.80;;;;;;4982761;28;20034;-88
2023/09/20 13:35:34;;;;;;;0.22;0.22;;;23.20;97.20;;;;;;4970476;28;20327;-89